createdAt,value
2018-05-24T00:01:19.119Z,3.00
2018-05-24T00:03:48.289Z,2.73
2018-05-24T00:06:17.441Z,2.87
2018-05-24T00:08:45.726Z,2.60
2018-05-24T00:11:14.354Z,2.43
2018-05-24T00:13:42.870Z,3.20
2018-05-24T00:16:11.671Z,2.40
2018-05-24T00:18:40.025Z,2.70
2018-05-24T00:21:09.809Z,2.67
2018-05-24T00:23:38.549Z,2.30
2018-05-24T00:26:06.969Z,2.67
2018-05-24T00:28:36.014Z,2.50
2018-05-24T00:31:04.368Z,2.60
2018-05-24T00:33:33.425Z,2.07
2018-05-24T00:36:03.332Z,2.60
2018-05-24T00:38:32.438Z,3.10
2018-05-24T00:41:01.702Z,2.43
2018-05-24T00:43:30.214Z,2.60
2018-05-24T00:45:58.520Z,3.00
2018-05-24T00:48:27.541Z,2.80
2018-05-24T00:50:55.896Z,2.50
2018-05-24T00:53:24.295Z,2.87
2018-05-24T00:55:53.353Z,2.27
2018-05-24T00:58:21.667Z,2.40
2018-05-24T01:00:50.809Z,2.67
2018-05-24T01:03:19.112Z,2.67
2018-05-24T01:05:47.437Z,3.00
2018-05-24T01:08:16.785Z,2.80
2018-05-24T01:10:45.579Z,2.43
2018-05-24T01:13:15.010Z,2.90
2018-05-24T01:15:44.920Z,3.13
2018-05-24T01:18:14.001Z,2.90
2018-05-24T01:20:43.865Z,3.00
2018-05-24T01:23:17.140Z,2.97
2018-05-24T01:25:46.200Z,2.37
2018-05-24T01:28:14.584Z,2.67
2018-05-24T01:30:43.791Z,3.10
2018-05-24T01:33:12.725Z,2.40
2018-05-24T01:35:42.379Z,3.40
2018-05-24T01:38:10.700Z,3.10
2018-05-24T01:40:40.633Z,3.20
2018-05-24T01:43:09.376Z,2.90
2018-05-24T01:45:38.385Z,3.10
2018-05-24T01:48:06.813Z,2.57
2018-05-24T01:50:35.235Z,3.07
2018-05-24T01:53:04.540Z,3.50
2018-05-24T01:55:33.474Z,3.10
2018-05-24T01:58:02.157Z,3.20
2018-05-24T02:00:31.343Z,3.50
2018-05-24T02:03:02.074Z,3.33
2018-05-24T02:05:31.376Z,4.10
2018-05-24T02:08:00.432Z,4.13
2018-05-24T02:10:29.332Z,3.70
2018-05-24T02:12:58.550Z,3.37
2018-05-24T02:15:26.859Z,3.17
2018-05-24T02:17:55.949Z,3.43
2018-05-24T02:20:25.035Z,3.63
2018-05-24T02:22:54.888Z,4.00
2018-05-24T02:25:23.243Z,3.80
2018-05-24T02:27:52.545Z,3.60
2018-05-24T02:30:21.604Z,3.97
2018-05-24T02:32:49.973Z,3.40
2018-05-24T02:35:20.897Z,3.70
2018-05-24T02:37:50.183Z,3.40
2018-05-24T02:40:19.251Z,3.80
2018-05-24T02:42:49.118Z,3.90
2018-05-24T02:45:17.447Z,3.80
2018-05-24T02:47:46.603Z,3.60
2018-05-24T02:50:14.898Z,3.47
2018-05-24T02:52:44.070Z,4.57
2018-05-24T02:55:12.636Z,3.10
2018-05-24T02:57:40.932Z,2.97
2018-05-24T03:00:10.865Z,2.93
2018-05-24T03:02:39.820Z,3.57
2018-05-24T03:05:08.758Z,3.23
2018-05-24T03:07:37.829Z,2.63
2018-05-24T03:10:07.886Z,3.47
2018-05-24T03:12:36.347Z,3.20
2018-05-24T03:15:04.740Z,2.90
2018-05-24T03:17:33.466Z,3.27
2018-05-24T03:20:02.034Z,3.10
2018-05-24T03:22:31.085Z,2.60
2018-05-24T03:24:59.978Z,2.70
2018-05-24T03:27:28.326Z,2.73
2018-05-24T03:29:58.140Z,3.00
2018-05-24T03:32:27.704Z,2.80
2018-05-24T03:34:56.068Z,3.13
2018-05-24T03:37:24.682Z,3.30
2018-05-24T03:39:54.294Z,3.67
2018-05-24T03:42:24.023Z,3.80
2018-05-24T03:44:53.611Z,3.40
2018-05-24T03:47:24.343Z,3.63
2018-05-24T03:49:52.960Z,2.97
2018-05-24T03:52:21.799Z,3.23
2018-05-24T03:54:50.136Z,3.17
2018-05-24T03:57:18.428Z,3.30
2018-05-24T04:00:13.549Z,3.60
2018-05-24T04:03:00.073Z,3.10
2018-05-24T04:05:29.253Z,3.40
2018-05-24T04:07:58.225Z,3.40
2018-05-24T04:10:27.125Z,2.83
2018-05-24T04:12:56.498Z,3.00
2018-05-24T04:15:25.595Z,2.97
2018-05-24T04:17:54.741Z,2.80
2018-05-24T04:20:23.049Z,2.63
2018-05-24T04:22:52.114Z,3.10
2018-05-24T04:25:20.425Z,2.97
2018-05-24T04:27:50.541Z,2.50
2018-05-24T04:30:18.965Z,2.80
2018-05-24T04:32:47.249Z,3.03
2018-05-24T04:35:15.554Z,2.80
2018-05-24T04:37:44.346Z,3.30
2018-05-24T04:40:12.689Z,2.70
2018-05-24T04:42:41.396Z,2.80
2018-05-24T04:45:09.879Z,2.50
2018-05-24T04:47:38.165Z,2.40
2018-05-24T04:50:06.874Z,3.80
2018-05-24T04:52:35.387Z,2.70
2018-05-24T04:55:04.592Z,2.20
2018-05-24T04:57:33.671Z,2.57
2018-05-24T05:00:03.523Z,2.90
2018-05-24T05:02:31.932Z,2.60
2018-05-24T05:05:00.865Z,2.40
2018-05-24T05:07:32.115Z,2.70
2018-05-24T05:10:01.474Z,3.13
2018-05-24T05:12:29.953Z,2.57
2018-05-24T05:14:58.983Z,2.60
2018-05-24T05:17:28.302Z,2.90
2018-05-24T05:19:56.785Z,3.00
2018-05-24T05:22:33.155Z,2.40
2018-05-24T05:25:02.950Z,2.47
2018-05-24T05:27:32.213Z,3.10
2018-05-24T05:30:05.354Z,2.20
2018-05-24T05:32:34.472Z,2.47
2018-05-24T05:35:05.069Z,2.20
2018-05-24T05:37:34.274Z,2.83
2018-05-24T05:40:04.014Z,2.67
2018-05-24T05:42:32.325Z,2.50
2018-05-24T05:45:00.816Z,2.83
2018-05-24T05:47:29.865Z,2.80
2018-05-24T05:49:59.137Z,2.53
2018-05-24T05:52:30.222Z,3.00
2018-05-24T05:54:58.582Z,2.40
2018-05-24T05:57:27.500Z,2.90
2018-05-24T05:59:55.961Z,2.87
2018-05-24T06:02:24.528Z,3.03
2018-05-24T06:04:53.579Z,2.17
2018-05-24T06:07:22.649Z,2.97
2018-05-24T06:09:50.945Z,3.50
2018-05-24T06:12:20.845Z,2.37
2018-05-24T06:14:50.667Z,2.67
2018-05-24T06:17:19.837Z,3.13
2018-05-24T06:19:48.972Z,2.30
2018-05-24T06:22:17.265Z,2.80
2018-05-24T06:24:45.765Z,2.97
2018-05-24T06:27:14.925Z,2.57
2018-05-24T06:29:44.198Z,2.80
2018-05-24T06:32:14.568Z,2.50
2018-05-24T06:34:42.858Z,2.93
2018-05-24T06:37:11.175Z,3.13
2018-05-24T06:39:41.351Z,2.90
2018-05-24T06:42:09.643Z,3.03
2018-05-24T06:44:37.973Z,3.10
2018-05-24T06:47:06.506Z,2.27
2018-05-24T06:49:35.502Z,2.83
2018-05-24T06:52:04.309Z,3.23
2018-05-24T06:54:33.394Z,2.60
2018-05-24T06:57:01.757Z,2.70
2018-05-24T06:59:30.075Z,2.60
2018-05-24T07:01:59.589Z,3.00
2018-05-24T07:04:28.232Z,2.30
2018-05-24T07:06:57.945Z,2.70
2018-05-24T07:09:27.190Z,2.53
2018-05-24T07:11:55.486Z,2.37
2018-05-24T07:14:26.677Z,2.53
2018-05-24T07:16:55.593Z,4.27
2018-05-24T07:19:25.633Z,2.63
2018-05-24T07:21:54.168Z,3.00
2018-05-24T07:24:23.728Z,2.63
2018-05-24T07:26:52.449Z,3.97
2018-05-24T07:29:22.391Z,2.60
2018-05-24T07:31:50.783Z,2.90
2018-05-24T07:34:19.293Z,2.40
2018-05-24T07:36:47.577Z,1.90
2018-05-24T07:39:15.890Z,2.43
2018-05-24T07:41:44.817Z,2.03
2018-05-24T07:44:14.461Z,2.33
2018-05-24T07:46:42.852Z,3.03
2018-05-24T07:49:11.952Z,2.07
2018-05-24T07:51:40.963Z,2.50
2018-05-24T07:54:10.195Z,2.83
2018-05-24T07:56:38.798Z,2.80
2018-05-24T07:59:07.078Z,2.30
2018-05-24T08:01:36.350Z,2.33
2018-05-24T08:04:06.037Z,2.20
2018-05-24T08:06:34.330Z,2.03
2018-05-24T08:09:05.776Z,2.40
2018-05-24T08:11:34.847Z,2.30
2018-05-24T08:14:03.268Z,2.10
2018-05-24T08:16:32.342Z,1.80
2018-05-24T08:19:00.960Z,1.73
2018-05-24T08:21:29.866Z,1.60
2018-05-24T08:23:59.659Z,1.90
2018-05-24T08:26:29.472Z,2.07
2018-05-24T08:28:59.512Z,2.60
2018-05-24T08:31:28.236Z,1.97
2018-05-24T08:33:56.568Z,2.33
2018-05-24T08:36:26.506Z,1.80
2018-05-24T08:38:54.927Z,1.73
2018-05-24T08:41:23.220Z,1.90
2018-05-24T08:43:53.051Z,2.37
2018-05-24T08:46:23.171Z,1.97
2018-05-24T08:48:52.255Z,1.93
2018-05-24T08:51:21.362Z,2.10
2018-05-24T08:53:50.452Z,2.07
2018-05-24T08:56:19.529Z,2.17
2018-05-24T08:58:47.853Z,1.80
2018-05-24T09:01:16.236Z,2.37
2018-05-24T09:03:44.453Z,2.60
2018-05-24T09:06:12.789Z,1.80
2018-05-24T09:08:43.261Z,2.20
2018-05-24T09:11:11.758Z,1.83
2018-05-24T09:13:40.345Z,2.40
2018-05-24T09:16:09.419Z,2.40
2018-05-24T09:18:37.958Z,2.03
2018-05-24T09:21:07.118Z,1.73
2018-05-24T09:23:36.336Z,1.80
2018-05-24T09:26:06.175Z,1.60
2018-05-24T09:28:34.482Z,2.27
2018-05-24T09:31:02.786Z,2.00
2018-05-24T09:33:31.441Z,1.70
2018-05-24T09:35:59.795Z,1.70
2018-05-24T09:38:28.861Z,1.80
2018-05-24T09:40:58.000Z,1.63
2018-05-24T09:43:26.337Z,1.67
2018-05-24T09:45:56.534Z,1.37
2018-05-24T09:48:25.071Z,1.90
2018-05-24T09:50:55.609Z,2.10
2018-05-24T09:53:24.425Z,1.60
2018-05-24T09:55:52.731Z,1.23
2018-05-24T09:58:21.094Z,1.60
2018-05-24T10:00:49.382Z,1.57
2018-05-24T10:03:18.998Z,2.50
2018-05-24T10:05:47.806Z,1.30
2018-05-24T10:08:16.596Z,1.50
2018-05-24T10:10:44.936Z,1.60
2018-05-24T10:13:13.432Z,1.90
2018-05-24T10:15:42.351Z,1.50
2018-05-24T10:18:11.110Z,2.00
2018-05-24T10:20:39.409Z,1.63
2018-05-24T10:23:08.278Z,2.13
2018-05-24T10:25:37.811Z,1.87
2018-05-24T10:28:06.542Z,1.90
2018-05-24T10:30:35.664Z,2.30
2018-05-24T10:33:03.965Z,1.63
2018-05-24T10:35:33.809Z,2.00
2018-05-24T10:38:02.876Z,1.80
2018-05-24T10:40:32.541Z,2.47
2018-05-24T10:43:01.402Z,1.93
2018-05-24T10:45:30.457Z,1.90
2018-05-24T10:47:58.806Z,2.07
2018-05-24T10:50:28.114Z,2.17
2018-05-24T10:52:56.425Z,1.90
2018-05-24T10:55:24.758Z,2.00
2018-05-24T10:57:53.864Z,2.10
2018-05-24T11:00:23.191Z,2.20
2018-05-24T11:02:51.513Z,1.70
2018-05-24T11:05:22.543Z,1.87
2018-05-24T11:07:50.902Z,2.00
2018-05-24T11:10:20.207Z,2.30
2018-05-24T11:12:48.521Z,2.00
2018-05-24T11:15:18.273Z,1.70
2018-05-24T11:17:48.059Z,2.13
2018-05-24T11:20:16.769Z,1.80
2018-05-24T11:22:45.685Z,2.13
2018-05-24T11:25:14.190Z,1.97
2018-05-24T11:27:42.473Z,1.70
2018-05-24T11:30:10.801Z,1.70
2018-05-24T11:32:39.206Z,1.90
2018-05-24T11:35:07.499Z,2.00
2018-05-24T11:37:35.817Z,1.70
2018-05-24T11:40:04.150Z,1.67
2018-05-24T11:42:32.440Z,1.90
2018-05-24T11:45:00.825Z,1.77
2018-05-24T11:47:29.474Z,1.80
2018-05-24T11:49:57.909Z,1.73
2018-05-24T11:52:26.970Z,1.63
2018-05-24T11:54:56.200Z,2.00
2018-05-24T11:57:25.657Z,1.90
2018-05-24T11:59:54.071Z,1.80
2018-05-24T12:02:22.418Z,2.30
2018-05-24T12:04:51.192Z,1.80
2018-05-24T12:07:19.511Z,1.53
2018-05-24T12:09:48.338Z,1.70
2018-05-24T12:12:16.996Z,1.60
2018-05-24T12:14:45.313Z,1.80
2018-05-24T12:17:13.650Z,1.47
2018-05-24T12:19:42.761Z,1.77
2018-05-24T12:22:11.115Z,1.77
2018-05-24T12:24:39.436Z,1.67
2018-05-24T12:27:08.579Z,2.07
2018-05-24T12:29:38.555Z,2.13
2018-05-24T12:32:06.890Z,1.60
2018-05-24T12:34:36.018Z,1.93
2018-05-24T12:37:05.128Z,2.13
2018-05-24T12:39:33.771Z,1.77
2018-05-24T12:42:02.157Z,1.90
2018-05-24T12:44:30.438Z,1.93
2018-05-24T12:46:59.102Z,1.70
2018-05-24T12:49:27.414Z,1.47
2018-05-24T12:51:56.673Z,1.70
2018-05-24T12:54:25.200Z,1.60
2018-05-24T12:56:54.267Z,2.30
2018-05-24T12:59:23.166Z,1.60
2018-05-24T13:01:51.684Z,1.83
2018-05-24T13:04:20.829Z,2.00
2018-05-24T13:06:50.068Z,1.90
2018-05-24T13:09:19.145Z,2.00
2018-05-24T13:11:47.458Z,1.13
2018-05-24T13:14:16.532Z,1.67
2018-05-24T13:16:45.746Z,2.20
2018-05-24T13:19:15.559Z,1.80
2018-05-24T13:21:45.197Z,1.50
2018-05-24T13:24:13.716Z,2.00
2018-05-24T13:26:42.735Z,2.13
2018-05-24T13:29:13.101Z,1.83
2018-05-24T13:31:42.152Z,1.43
2018-05-24T13:34:10.666Z,1.90
2018-05-24T13:36:39.659Z,1.77
2018-05-24T13:39:08.450Z,1.60
2018-05-24T13:41:36.791Z,1.60
2018-05-24T13:44:05.097Z,1.80
2018-05-24T13:46:35.505Z,1.90
2018-05-24T13:49:04.532Z,1.40
2018-05-24T13:51:33.058Z,1.60
2018-05-24T13:54:02.113Z,1.93
2018-05-24T13:56:31.103Z,2.50
2018-05-24T13:58:59.439Z,1.70
2018-05-24T14:01:27.929Z,2.03
2018-05-24T14:03:57.180Z,2.10
2018-05-24T14:06:25.771Z,2.07
2018-05-24T14:08:55.580Z,1.80
2018-05-24T14:11:24.720Z,1.60
2018-05-24T14:13:53.013Z,1.40
2018-05-24T14:16:21.332Z,1.17
2018-05-24T14:18:49.658Z,1.80
2018-05-24T14:21:17.963Z,1.83
2018-05-24T14:23:47.027Z,1.47
2018-05-24T14:26:15.762Z,1.67
2018-05-24T14:28:45.614Z,1.77
2018-05-24T14:31:13.919Z,1.70
2018-05-24T14:33:42.261Z,1.47
2018-05-24T14:36:10.599Z,1.67
2018-05-24T14:38:39.653Z,1.63
2018-05-24T14:41:07.965Z,1.60
2018-05-24T14:43:37.426Z,1.17
2018-05-24T14:46:05.822Z,1.97
2018-05-24T14:48:34.525Z,2.37
2018-05-24T14:51:05.034Z,1.70
2018-05-24T14:53:33.336Z,1.57
2018-05-24T14:56:01.656Z,1.40
2018-05-24T14:58:30.368Z,1.73
2018-05-24T15:00:59.445Z,1.90
2018-05-24T15:03:28.066Z,1.63
2018-05-24T15:05:56.354Z,1.80
2018-05-24T15:08:25.488Z,1.80
2018-05-24T15:10:54.349Z,2.33
2018-05-24T15:13:40.971Z,1.70
2018-05-24T15:16:10.073Z,2.00
2018-05-24T15:18:39.666Z,2.10
2018-05-24T15:21:08.360Z,1.80
2018-05-24T15:23:37.424Z,2.17
2018-05-24T15:26:05.723Z,2.10
2018-05-24T15:28:34.917Z,2.20
2018-05-24T15:31:03.381Z,2.30
2018-05-24T15:33:32.174Z,2.00
2018-05-24T15:36:00.923Z,2.00
2018-05-24T15:38:29.266Z,2.43
2018-05-24T15:40:58.257Z,1.90
2018-05-24T15:43:27.239Z,1.93
2018-05-24T15:45:56.441Z,1.67
2018-05-24T15:48:24.820Z,2.50
2018-05-24T15:50:53.921Z,1.90
2018-05-24T15:53:22.241Z,1.90
2018-05-24T15:55:51.261Z,1.80
2018-05-24T15:58:20.145Z,1.70
2018-05-24T16:00:49.599Z,1.83
2018-05-24T16:03:18.405Z,1.50
2018-05-24T16:05:47.500Z,2.10
2018-05-24T16:08:16.566Z,2.00
2018-05-24T16:10:44.881Z,1.93
2018-05-24T16:13:14.327Z,2.00
2018-05-24T16:15:42.608Z,2.27
2018-05-24T16:18:14.130Z,1.90
2018-05-24T16:20:42.425Z,2.13
2018-05-24T16:23:11.928Z,2.33
2018-05-24T16:25:41.044Z,2.50
2018-05-24T16:28:09.376Z,1.87
2018-05-24T16:30:38.655Z,1.80
2018-05-24T16:33:07.648Z,2.10
2018-05-24T16:35:36.006Z,1.70
2018-05-24T16:38:04.406Z,1.97
2018-05-24T16:40:33.792Z,1.83
2018-05-24T16:43:03.052Z,2.40
2018-05-24T16:45:31.416Z,1.63
2018-05-24T16:48:01.884Z,1.77
2018-05-24T16:50:30.176Z,1.83
2018-05-24T16:52:58.509Z,1.90
2018-05-24T16:55:27.049Z,1.90
2018-05-24T16:57:56.070Z,1.90
2018-05-24T17:00:26.138Z,1.60
2018-05-24T17:02:54.425Z,1.73
2018-05-24T17:05:22.713Z,2.07
2018-05-24T17:07:51.034Z,1.90
2018-05-24T17:10:20.131Z,2.03
2018-05-24T17:12:50.057Z,2.20
2018-05-24T17:15:18.599Z,2.00
2018-05-24T17:17:48.449Z,1.80
2018-05-24T17:20:18.407Z,2.00
2018-05-24T17:22:46.732Z,2.00
2018-05-24T17:25:16.228Z,1.90
2018-05-24T17:27:46.777Z,2.73
2018-05-24T17:30:21.809Z,2.30
2018-05-24T17:32:50.900Z,1.87
2018-05-24T17:35:20.692Z,2.17
2018-05-24T17:37:49.708Z,1.60
2018-05-24T17:40:19.761Z,2.30
2018-05-24T17:42:48.298Z,2.53
2018-05-24T17:45:17.179Z,2.27
2018-05-24T17:47:45.773Z,2.27
2018-05-24T17:50:14.166Z,2.17
2018-05-24T17:52:44.072Z,1.93
2018-05-24T17:55:12.580Z,2.10
2018-05-24T17:57:43.771Z,1.80
2018-05-24T18:00:12.866Z,2.20
2018-05-24T18:02:41.163Z,1.90
2018-05-24T18:05:09.637Z,2.40
2018-05-24T18:07:39.141Z,2.10
2018-05-24T18:10:07.636Z,2.17
2018-05-24T18:12:37.559Z,2.20
2018-05-24T18:15:06.419Z,1.50
2018-05-24T18:17:35.154Z,2.40
2018-05-24T18:20:04.633Z,2.20
2018-05-24T18:22:33.413Z,2.00
2018-05-24T18:25:01.767Z,1.90
2018-05-24T18:27:30.554Z,3.03
2018-05-24T18:30:01.540Z,2.00
2018-05-24T18:32:30.600Z,2.40
2018-05-24T18:34:59.419Z,2.10
2018-05-24T18:37:28.687Z,1.83
2018-05-24T18:39:56.993Z,2.50
2018-05-24T18:42:25.441Z,2.00
2018-05-24T18:44:54.471Z,1.93
2018-05-24T18:47:23.099Z,2.20
2018-05-24T18:49:52.310Z,2.10
2018-05-24T18:52:22.064Z,2.00
2018-05-24T18:54:51.630Z,2.60
2018-05-24T18:57:19.923Z,1.63
2018-05-24T18:59:48.810Z,2.20
2018-05-24T19:02:17.320Z,2.57
2018-05-24T19:04:45.858Z,1.90
2018-05-24T19:07:14.945Z,2.23
2018-05-24T19:09:44.266Z,1.97
2018-05-24T19:12:13.301Z,2.60
2018-05-24T19:14:41.602Z,2.20
2018-05-24T19:17:13.028Z,2.60
2018-05-24T19:19:43.023Z,3.00
2018-05-24T19:22:12.954Z,2.47
2018-05-24T19:24:41.262Z,2.10
2018-05-24T19:27:10.404Z,2.13
2018-05-24T19:29:40.478Z,2.37
2018-05-24T19:32:08.840Z,2.33
2018-05-24T19:34:38.113Z,2.17
2018-05-24T19:37:09.327Z,2.33
2018-05-24T19:39:38.534Z,2.40
2018-05-24T19:42:07.590Z,2.53
2018-05-24T19:44:35.901Z,2.10
2018-05-24T19:47:04.229Z,2.50
2018-05-24T19:49:32.758Z,2.70
2018-05-24T19:52:01.972Z,2.00
2018-05-24T19:54:31.621Z,2.00
2018-05-24T19:56:59.988Z,2.90
2018-05-24T19:59:28.294Z,2.00
2018-05-24T20:01:57.065Z,2.80
2018-05-24T20:04:25.463Z,2.10
2018-05-24T20:06:54.343Z,2.40
2018-05-24T20:09:22.738Z,2.70
2018-05-24T20:11:51.564Z,2.50
2018-05-24T20:14:20.702Z,2.77
2018-05-24T20:16:49.053Z,2.33
2018-05-24T20:19:18.269Z,2.80
2018-05-24T20:21:47.472Z,3.00
2018-05-24T20:24:16.374Z,2.30
2018-05-24T20:26:44.714Z,2.50
2018-05-24T20:29:13.846Z,2.50
2018-05-24T20:31:43.686Z,2.27
2018-05-24T20:34:12.227Z,2.67
2018-05-24T20:36:40.565Z,2.77
2018-05-24T20:39:10.641Z,2.70
2018-05-24T20:41:39.016Z,2.30
2018-05-24T20:44:07.357Z,2.93
2018-05-24T20:46:36.525Z,2.70
2018-05-24T20:49:06.552Z,2.57
2018-05-24T20:51:35.818Z,2.60
2018-05-24T20:54:04.158Z,2.83
2018-05-24T20:56:33.317Z,2.70
2018-05-24T20:59:01.868Z,3.40
2018-05-24T21:01:30.946Z,2.17
2018-05-24T21:04:00.077Z,2.37
2018-05-24T21:06:28.734Z,2.93
2018-05-24T21:08:57.144Z,2.70
2018-05-24T21:11:25.510Z,2.43
2018-05-24T21:13:53.914Z,2.30
2018-05-24T21:16:22.279Z,3.00
2018-05-24T21:18:50.625Z,2.73
2018-05-24T21:21:21.087Z,3.13
2018-05-24T21:23:49.449Z,2.67
2018-05-24T21:26:17.822Z,2.87
2018-05-24T21:28:46.170Z,2.60
2018-05-24T21:31:16.015Z,2.60
2018-05-24T21:33:45.626Z,2.93
2018-05-24T21:36:13.977Z,2.50
2018-05-24T21:38:43.211Z,2.63
2018-05-24T21:41:11.600Z,2.87
2018-05-24T21:43:39.952Z,2.50
2018-05-24T21:46:09.045Z,3.00
2018-05-24T21:48:38.185Z,2.70
2018-05-24T21:51:06.560Z,3.10
2018-05-24T21:53:35.604Z,2.23
2018-05-24T21:56:04.724Z,3.13
2018-05-24T21:58:34.504Z,2.83
2018-05-24T22:01:02.871Z,2.50
2018-05-24T22:03:31.204Z,3.73
2018-05-24T22:05:59.763Z,3.13
2018-05-24T22:08:28.891Z,2.80
2018-05-24T22:10:57.276Z,2.80
2018-05-24T22:13:25.654Z,2.90
2018-05-24T22:15:53.993Z,2.63
2018-05-24T22:18:22.802Z,3.07
2018-05-24T22:20:51.950Z,3.20
2018-05-24T22:23:20.299Z,3.00
2018-05-24T22:25:48.648Z,2.90
2018-05-24T22:28:17.800Z,2.70
2018-05-24T22:30:46.473Z,3.23
2018-05-24T22:33:14.813Z,3.43
2018-05-24T22:35:43.946Z,3.80
2018-05-24T22:38:12.431Z,2.40
2018-05-24T22:40:40.780Z,3.87
2018-05-24T22:43:10.113Z,2.47
2018-05-24T22:45:38.701Z,2.83
2018-05-24T22:48:07.071Z,3.40
2018-05-24T22:50:35.493Z,2.80
2018-05-24T22:53:03.889Z,2.80
2018-05-24T22:55:32.253Z,2.70
2018-05-24T22:58:01.393Z,3.20
2018-05-24T23:00:30.545Z,2.83
2018-05-24T23:02:58.893Z,2.77
2018-05-24T23:05:27.273Z,3.20
2018-05-24T23:07:55.607Z,2.97
2018-05-24T23:10:23.983Z,2.63
2018-05-24T23:12:52.355Z,3.30
2018-05-24T23:15:21.569Z,3.30
2018-05-24T23:17:49.896Z,3.20
2018-05-24T23:20:18.277Z,3.70
2018-05-24T23:22:46.759Z,2.80
2018-05-24T23:25:15.129Z,3.20
2018-05-24T23:27:43.572Z,3.27
2018-05-24T23:30:12.710Z,3.20
2018-05-24T23:32:41.051Z,3.30
2018-05-24T23:35:10.267Z,2.37
2018-05-24T23:37:39.367Z,3.00
2018-05-24T23:40:07.749Z,2.80
2018-05-24T23:42:36.984Z,2.77
2018-05-24T23:45:05.306Z,2.97
2018-05-24T23:47:34.474Z,3.60
2018-05-24T23:50:02.824Z,3.30
2018-05-24T23:52:31.205Z,3.30
2018-05-24T23:54:59.573Z,3.13
2018-05-24T23:57:27.899Z,3.77
2018-05-24T23:59:56.276Z,3.20
